Map

Track Data

SID SEASON NUMBER BASIN SUBBASIN NAME ISO_TIME NATURE LAT LON WMO_WIND WMO_PRES WMO_AGENCY TRACK_TYPE DIST2LAND LANDFALL IFLAG USA_AGENCY USA_ATCF_ID USA_LAT USA_LON USA_RECORD USA_STATUS USA_WIND USA_PRES USA_SSHS USA_R34_NE USA_R34_SE USA_R34_SW USA_R34_NW USA_R50_NE USA_R50_SE USA_R50_SW USA_R50_NW USA_R64_NE USA_R64_SE USA_R64_SW USA_R64_NW USA_POCI USA_ROCI USA_RMW USA_EYE TOKYO_LAT TOKYO_LON TOKYO_GRADE TOKYO_WIND TOKYO_PRES TOKYO_R50_DIR TOKYO_R50_LONG TOKYO_R50_SHORT TOKYO_R30_DIR TOKYO_R30_LONG TOKYO_R30_SHORT TOKYO_LAND CMA_LAT CMA_LON CMA_CAT CMA_WIND CMA_PRES HKO_LAT HKO_LON HKO_CAT HKO_WIND HKO_PRES NEWDELHI_LAT NEWDELHI_LON NEWDELHI_GRADE NEWDELHI_WIND NEWDELHI_PRES NEWDELHI_CI NEWDELHI_DP NEWDELHI_POCI REUNION_LAT REUNION_LON REUNION_TYPE REUNION_WIND REUNION_PRES REUNION_TNUM REUNION_CI REUNION_RMW REUNION_R34_NE REUNION_R34_SE REUNION_R34_SW REUNION_R34_NW REUNION_R50_NE REUNION_R50_SE REUNION_R50_SW REUNION_R50_NW REUNION_R64_NE REUNION_R64_SE REUNION_R64_SW REUNION_R64_NW BOM_LAT BOM_LON BOM_TYPE BOM_WIND BOM_PRES BOM_TNUM BOM_CI BOM_RMW BOM_R34_NE BOM_R34_SE BOM_R34_SW BOM_R34_NW BOM_R50_NE BOM_R50_SE BOM_R50_SW BOM_R50_NW BOM_R64_NE BOM_R64_SE BOM_R64_SW BOM_R64_NW BOM_ROCI BOM_POCI BOM_EYE BOM_POS_METHOD BOM_PRES_METHOD NADI_LAT NADI_LON NADI_CAT NADI_WIND NADI_PRES WELLINGTON_LAT WELLINGTON_LON WELLINGTON_WIND WELLINGTON_PRES DS824_LAT DS824_LON DS824_STAGE DS824_WIND DS824_PRES TD9636_LAT TD9636_LON TD9636_STAGE TD9636_WIND TD9636_PRES TD9635_LAT TD9635_LON TD9635_WIND TD9635_PRES TD9635_ROCI NEUMANN_LAT NEUMANN_LON NEUMANN_CLASS NEUMANN_WIND NEUMANN_PRES MLC_LAT MLC_LON MLC_CLASS MLC_WIND MLC_PRES USA_GUST BOM_GUST BOM_GUST_PER REUNION_GUST REUNION_GUST_PER USA_SEAHGT USA_SEARAD_NE USA_SEARAD_SE USA_SEARAD_SW USA_SEARAD_NW STORM_SPEED STORM_DIR
1884191N15127 1884 17 WP MM NOT_NAMED 1884-07-08 16:00:00 NR 14.8000 126.700 main 267 242 __________O___ -1 14.8000 126.700 4 8 291
1884191N15127 1884 17 WP MM NOT_NAMED 1884-07-08 18:00:00 NR 14.8957 126.442 main 242 220 __________P___ -1 14.8957 126.442 4 8 291
1884191N15127 1884 17 WP MM NOT_NAMED 1884-07-08 21:00:00 NR 15.0343 126.065 main 220 194 __________P___ -1 15.0343 126.065 4 8 291
1884191N15127 1884 17 WP MM NOT_NAMED 1884-07-09 00:00:00 NR 15.1611 125.710 main 201 186 __________P___ -1 15.1611 125.710 4 7 290
1884191N15127 1884 17 WP MM NOT_NAMED 1884-07-09 03:00:00 NR 15.2692 125.394 main 187 181 __________P___ -1 15.2692 125.394 4 6 289
1884191N15127 1884 17 WP MM NOT_NAMED 1884-07-09 04:00:00 NR 15.3000 125.300 main 181 169 __________O___ -1 15.3000 125.300 4 5 288
1884191N15127 1884 17 WP MM NOT_NAMED 1884-07-09 06:00:00 NR 15.3533 125.130 main 178 169 __________P___ -1 15.3533 125.130 4 5 288
1884191N15127 1884 17 WP MM NOT_NAMED 1884-07-09 09:00:00 NR 15.4207 124.912 main 169 165 __________P___ -1 15.4207 124.912 4 4 289
1884191N15127 1884 17 WP MM NOT_NAMED 1884-07-09 12:00:00 NR 15.4869 124.726 main 173 170 __________P___ -1 15.4869 124.726 4 4 293
1884191N15127 1884 17 WP MM NOT_NAMED 1884-07-09 15:00:00 NR 15.5673 124.556 main 181 180 __________P___ -1 15.5673 124.556 4 4 298
1884191N15127 1884 17 WP MM NOT_NAMED 1884-07-09 16:00:00 NR 15.6000 124.500 main 180 179 __________O___ -1 15.6000 124.500 4 4 301
1884191N15127 1884 17 WP MM NOT_NAMED 1884-07-09 18:00:00 NR 15.6617 124.393 main 190 190 __________P___ -1 15.6617 124.393 4 4 305
1884191N15127 1884 17 WP MM NOT_NAMED 1884-07-09 21:00:00 NR 15.7728 124.239 main 201 201 __________P___ -1 15.7728 124.239 4 4 310
1884191N15127 1884 17 WP MM NOT_NAMED 1884-07-10 00:00:00 NR 15.9202 124.075 main 204 174 __________P___ -1 15.9202 124.075 4 5 315
1884191N15127 1884 17 WP MM NOT_NAMED 1884-07-10 03:00:00 NR 16.1194 123.877 main 174 159 __________P___ -1 16.1194 123.877 4 6 317
1884191N15127 1884 17 WP MM NOT_NAMED 1884-07-10 04:00:00 NR 16.2000 123.800 main 159 129 __________O___ -1 16.2000 123.800 4 7 315
1884191N15127 1884 17 WP MM NOT_NAMED 1884-07-10 06:00:00 NR 16.3695 123.612 main 129 88 __________P___ -1 16.3695 123.612 4 8 314
1884191N15127 1884 17 WP MM NOT_NAMED 1884-07-10 09:00:00 NR 16.6736 123.293 main 88 53 __________P___ -1 16.6736 123.293 4 9 316
1884191N15127 1884 17 WP MM NOT_NAMED 1884-07-10 12:00:00 NR 17.0349 122.950 main 53 24 __________P___ -1 17.0349 122.950 4 10 320
1884191N15127 1884 17 WP MM NOT_NAMED 1884-07-10 15:00:00 NR 17.4501 122.609 main 30 30 __________P___ -1 17.4501 122.609 4 11 323
1884191N15127 1884 17 WP MM NOT_NAMED 1884-07-10 16:00:00 NR 17.6000 122.500 main 35 21 __________O___ -1 17.6000 122.500 4 10 326
1884191N15127 1884 17 WP MM NOT_NAMED 1884-07-10 18:00:00 NR 17.8811 122.302 main 21 0 __________P___ -1 17.8811 122.302 4 11 328
1884191N15127 1884 17 WP MM NOT_NAMED 1884-07-10 21:00:00 NR 18.3464 122.018 main 0 10 __________P___ -1 18.3464 122.018 4 11 332
1884191N15127 1884 17 WP MM NOT_NAMED 1884-07-11 00:00:00 NR 18.8751 121.747 main 54 54 __________P___ -1 18.8751 121.747 4 12 336
1884191N15127 1884 17 WP MM NOT_NAMED 1884-07-11 03:00:00 NR 19.4795 121.485 main 112 112 __________P___ -1 19.4795 121.485 4 13 338
1884191N15127 1884 17 WP MM NOT_NAMED 1884-07-11 04:00:00 NR 19.7000 121.400 main 133 133 __________O___ -1 19.7000 121.400 4 15 343
1884191N15127 1884 17 WP MM NOT_NAMED 1884-07-11 06:00:00 NR 20.1753 121.255 main 183 101 __________P___ -1 20.1753 121.255 4 16 345
1884191N15127 1884 17 WP MM NOT_NAMED 1884-07-11 09:00:00 NR 20.9580 121.045 main 101 11 __________P___ -1 20.9580 121.045 4 17 346
1884191N15127 1884 17 WP MM NOT_NAMED 1884-07-11 12:00:00 NR 21.7884 120.812 main 11 0 __________P___ -1 21.7884 120.812 4 17 344
1884191N15127 1884 17 WP MM NOT_NAMED 1884-07-11 15:00:00 NR 22.6261 120.518 main 0 0 __________P___ -1 22.6261 120.518 4 18 341
1884191N15127 1884 17 WP MM NOT_NAMED 1884-07-11 16:00:00 NR 22.9000 120.400 main 0 0 __________O___ -1 22.9000 120.400 4 18 334
1884191N15127 1884 17 WP MM NOT_NAMED 1884-07-11 18:00:00 NR 23.4542 120.084 main 10 10 __________P___ -1 23.4542 120.084 4 19 330
1884191N15127 1884 17 WP MM NOT_NAMED 1884-07-11 21:00:00 NR 24.2736 119.539 main 87 0 __________P___ -1 24.2736 119.539 4 19 327
1884191N15127 1884 17 WP MM NOT_NAMED 1884-07-12 00:00:00 NR 25.0390 118.970 main 0 0 __________P___ -1 25.0390 118.970 4 17 325
1884191N15127 1884 17 WP MM NOT_NAMED 1884-07-12 03:00:00 NR 25.7066 118.450 main 0 0 __________P___ -1 25.7066 118.450 4 16 325
1884191N15127 1884 17 WP MM NOT_NAMED 1884-07-12 04:00:00 NR 25.9000 118.300 main 0 0 __________O___ -1 25.9000 118.300 4 13 326
1884191N15127 1884 17 WP MM NOT_NAMED 1884-07-12 06:00:00 NR 26.2265 118.056 main 0 0 __________P___ -1 26.2265 118.056 4 10 326
1884191N15127 1884 17 WP MM NOT_NAMED 1884-07-12 09:00:00 NR 26.6161 117.766 main 0 0 __________P___ -1 26.6161 117.766 4 8 328
1884191N15127 1884 17 WP MM NOT_NAMED 1884-07-12 12:00:00 NR 26.9272 117.561 main 0 0 __________P___ -1 26.9272 117.561 4 7 333
1884191N15127 1884 17 WP MM NOT_NAMED 1884-07-12 15:00:00 NR 27.2061 117.430 main 0 0 __________P___ -1 27.2061 117.430 4 6 339
1884191N15127 1884 17 WP MM NOT_NAMED 1884-07-12 16:00:00 NR 27.3000 117.400 main 0 0 __________O___ -1 27.3000 117.400 4 6 349
1884191N15127 1884 17 WP MM NOT_NAMED 1884-07-12 18:00:00 NR 27.4966 117.360 main 0 0 __________P___ -1 27.4966 117.360 4 6 354
1884191N15127 1884 17 WP MM NOT_NAMED 1884-07-12 21:00:00 NR 27.8114 117.339 main 0 0 __________P___ -1 27.8114 117.339 4 6 0
1884191N15127 1884 17 WP MM NOT_NAMED 1884-07-13 00:00:00 NR 28.1434 117.353 main 0 0 __________P___ -1 28.1434 117.353 4 7 3
1884191N15127 1884 17 WP MM NOT_NAMED 1884-07-13 03:00:00 NR 28.4852 117.387 main 0 0 __________P___ -1 28.4852 117.387 4 7 4
1884191N15127 1884 17 WP MM NOT_NAMED 1884-07-13 04:00:00 NR 28.6000 117.400 main 0 __________O___ -1 28.6000 117.400 4 7 0

Digital Typhoon Data and Search

About IBTrACS Database

This database is a web-friendly format of International Best Track Archive for Climate Stewardship (IBTrACS), a global best track data archive curated by NOAA dating back to 1842.

Updated: 2021-10-21